메인 페이지
METAR-TAF:

METAR-TAF

공항 :

만달레이 국제공항

만달레이, 미얀마

위도: 21-59N, 경도: 096-06E, 고도: 74m

현재 날씨관측

예보는 6 시간 24분 전, 13:30시(UTC)에 발표되었습니다.
무풍
온도 30°C
습도 24%
기압 1007 hPa
시정: 6000m
고도 2500ft 상공 구름 보통

METAR: VYMD 051330Z 00000KT 6000 SCT025 30/07 Q1007 NOSIG

시각: 02:24 (19:54 UTC)

예보

예보는 2 시간 54분 전, 17:00시(UTC)에 발표되었습니다.
예보 대상 시간: 05일 18시부터 06일 18시까지 (UTC)
남서5kt
시정: 6000m
고도 2000ft 상공 구름 조금
일시적
05일 18시부터 05일 24시까지 (UTC)
북서3kt
시정: 5000m
연무

TAF: VYMD 051700Z 0518/0618 22005KT 6000 FEW020 TEMPO 0518/0524 32003KT 5000 HZ

4,000개 이상의 공항 관측 자료 및 예보 (METAR 및 TAF 보고).

지도상에서 검색 가능한 기상관측소가 노란 점과 빨간 점으로 표시되어 있습니다.

기상관측소 명을 보려면 표시 위로 마우스를 이동하세요.

날씨 관측과 예보를 보려면 클릭하세요.

지도 변경 : 확대하려면 엑스 표시가 있는 녹색 버튼, 축소하려면 빼기 표시가 있는 녹색 버튼, 다음 페이지의 지도를 보려면 녹색 화살표를 클릭하세요.


METAR-TAF: